createdAt,value
2022-10-18T00:01:05.720Z,80.65
2022-10-18T00:03:39.008Z,80.72
2022-10-18T00:06:11.043Z,81.26
2022-10-18T00:08:45.599Z,81.19
2022-10-18T00:11:17.252Z,80.82
2022-10-18T00:13:48.914Z,80.90
2022-10-18T00:16:20.685Z,80.85
2022-10-18T00:18:52.526Z,80.51
2022-10-18T00:21:25.617Z,80.42
2022-10-18T00:23:58.451Z,80.22
2022-10-18T00:26:31.093Z,80.48
2022-10-18T00:29:07.132Z,80.91
2022-10-18T00:31:43.992Z,81.85
2022-10-18T00:34:16.719Z,82.33
2022-10-18T00:36:48.767Z,82.75
2022-10-18T00:39:21.561Z,82.76
2022-10-18T00:41:53.308Z,82.79
2022-10-18T00:44:28.964Z,82.81
2022-10-18T00:47:08.491Z,83.32
2022-10-18T00:49:48.147Z,83.40
2022-10-18T00:52:43.831Z,83.03
2022-10-18T00:55:18.119Z,83.16
2022-10-18T00:57:50.299Z,83.72
2022-10-18T01:00:22.195Z,83.38
2022-10-18T01:02:59.040Z,83.52
2022-10-18T01:05:31.358Z,83.28
2022-10-18T01:08:17.657Z,83.06
2022-10-18T01:11:00.126Z,83.13
2022-10-18T01:13:47.698Z,83.25
2022-10-18T01:16:43.017Z,82.60
2022-10-18T01:19:33.405Z,82.57
2022-10-18T01:22:35.187Z,82.74
2022-10-18T01:25:36.651Z,82.46
2022-10-18T01:28:31.581Z,82.40
2022-10-18T01:31:25.684Z,82.08
2022-10-18T01:36:48.578Z,82.00
2022-10-18T01:39:28.151Z,82.84
2022-10-18T01:42:03.175Z,83.83
2022-10-18T01:44:36.757Z,84.38
2022-10-18T01:47:13.382Z,84.74
2022-10-18T01:49:45.164Z,84.53
2022-10-18T01:52:16.939Z,84.71
2022-10-18T01:54:49.238Z,84.32
2022-10-18T01:57:41.106Z,84.30
2022-10-18T02:00:26.605Z,83.89
2022-10-18T02:03:22.553Z,83.49
2022-10-18T02:06:20.161Z,83.56
2022-10-18T02:09:13.682Z,83.27
2022-10-18T02:11:48.694Z,83.30
2022-10-18T02:14:25.883Z,83.62
2022-10-18T02:17:05.644Z,84.12
2022-10-18T02:19:55.575Z,83.95
2022-10-18T02:22:31.620Z,84.09
2022-10-18T02:25:10.361Z,84.14
2022-10-18T02:27:42.096Z,84.01
2022-10-18T02:30:15.815Z,83.39
2022-10-18T02:32:55.611Z,84.66
2022-10-18T02:35:36.277Z,85.41
2022-10-18T02:38:10.186Z,85.40
2022-10-18T02:40:44.633Z,85.90
2022-10-18T02:43:16.287Z,86.01
2022-10-18T02:45:48.025Z,85.39
2022-10-18T02:48:19.683Z,85.80
2022-10-18T02:50:51.436Z,85.44
2022-10-18T02:53:25.901Z,85.68
2022-10-18T02:55:59.580Z,85.44
2022-10-18T02:58:31.185Z,85.35
2022-10-18T03:01:03.043Z,85.06
2022-10-18T03:03:36.837Z,84.73
2022-10-18T03:06:12.363Z,85.09
2022-10-18T03:08:47.921Z,84.64
2022-10-18T03:11:19.765Z,84.74
2022-10-18T03:13:54.235Z,84.74
2022-10-18T03:16:26.228Z,85.00
2022-10-18T03:18:57.860Z,85.56
2022-10-18T03:21:29.625Z,85.40
2022-10-18T03:24:02.241Z,85.44
2022-10-18T03:26:33.932Z,85.24
2022-10-18T03:29:06.131Z,85.02
2022-10-18T03:31:38.043Z,85.33
2022-10-18T03:34:09.737Z,85.29
2022-10-18T03:36:41.722Z,84.90
2022-10-18T03:39:13.532Z,85.45
2022-10-18T03:41:45.236Z,85.39
2022-10-18T03:44:17.003Z,85.00
2022-10-18T03:46:48.685Z,84.89
2022-10-18T03:49:20.388Z,84.96
2022-10-18T03:51:58.164Z,84.81
2022-10-18T03:54:32.623Z,84.88
2022-10-18T03:57:06.938Z,84.66
2022-10-18T03:59:38.634Z,84.21
2022-10-18T04:02:11.545Z,84.27
2022-10-18T04:04:43.285Z,84.23
2022-10-18T04:07:15.309Z,84.27
2022-10-18T04:09:46.966Z,84.75
2022-10-18T04:12:18.726Z,84.29
2022-10-18T04:14:50.539Z,84.83
2022-10-18T04:17:22.217Z,85.01
2022-10-18T04:19:53.958Z,85.40
2022-10-18T04:22:25.779Z,85.65
2022-10-18T04:25:00.141Z,85.73
2022-10-18T04:27:32.448Z,85.93
2022-10-18T04:30:04.794Z,85.60
2022-10-18T04:32:36.616Z,85.49
2022-10-18T04:35:08.632Z,85.87
2022-10-18T04:37:40.439Z,86.26
2022-10-18T04:40:12.525Z,87.04
2022-10-18T04:42:44.398Z,86.93
2022-10-18T04:45:18.449Z,87.14
2022-10-18T04:47:50.948Z,87.28
2022-10-18T04:50:23.852Z,87.17
2022-10-18T04:52:57.083Z,87.02
2022-10-18T04:55:28.731Z,87.38
2022-10-18T04:58:00.491Z,87.18
2022-10-18T05:00:36.466Z,87.15
2022-10-18T05:03:18.804Z,86.63
2022-10-18T05:06:08.039Z,86.87
2022-10-18T05:08:41.741Z,87.25
2022-10-18T05:11:13.801Z,86.94
2022-10-18T05:13:48.564Z,87.21
2022-10-18T05:16:25.719Z,87.10
2022-10-18T05:18:57.418Z,86.82
2022-10-18T05:21:29.030Z,86.68
2022-10-18T05:24:00.921Z,86.00
2022-10-18T05:26:32.939Z,86.27
2022-10-18T05:29:04.736Z,86.09
2022-10-18T05:31:36.662Z,85.95
2022-10-18T05:34:11.200Z,85.67
2022-10-18T05:36:42.980Z,85.26
2022-10-18T05:39:14.889Z,85.61
2022-10-18T05:41:46.582Z,85.83
2022-10-18T05:44:18.259Z,86.04
2022-10-18T05:46:50.132Z,85.67
2022-10-18T05:49:24.838Z,85.93
2022-10-18T05:52:00.246Z,85.89
2022-10-18T05:54:32.777Z,85.68
2022-10-18T05:57:06.690Z,85.26
2022-10-18T05:59:38.790Z,85.97
2022-10-18T06:02:15.058Z,86.05
2022-10-18T06:04:53.470Z,86.25
2022-10-18T06:07:25.842Z,86.83
2022-10-18T06:10:01.923Z,86.87
2022-10-18T06:12:36.550Z,86.98
2022-10-18T06:15:08.604Z,86.74
2022-10-18T06:17:40.251Z,85.94
2022-10-18T06:20:12.448Z,86.04
2022-10-18T06:22:44.258Z,86.83
2022-10-18T06:25:15.939Z,86.91
2022-10-18T06:27:47.621Z,86.68
2022-10-18T06:30:19.372Z,86.14
2022-10-18T06:32:53.766Z,85.19
2022-10-18T06:35:25.523Z,84.13
2022-10-18T06:37:57.754Z,83.79
2022-10-18T06:40:31.044Z,84.14
2022-10-18T06:43:19.604Z,83.83
2022-10-18T06:45:53.405Z,84.10
2022-10-18T06:48:25.203Z,83.72
2022-10-18T06:50:59.232Z,83.84
2022-10-18T06:53:33.852Z,83.58
2022-10-18T06:56:06.822Z,83.70
2022-10-18T06:58:39.171Z,83.23
2022-10-18T07:01:16.464Z,83.40
2022-10-18T07:03:53.346Z,83.23
2022-10-18T07:06:25.090Z,83.40
2022-10-18T07:09:00.653Z,82.94
2022-10-18T07:11:35.381Z,82.97
2022-10-18T07:14:07.307Z,83.08
2022-10-18T07:16:39.034Z,82.62
2022-10-18T07:19:10.986Z,82.27
2022-10-18T07:21:42.679Z,82.65
2022-10-18T07:24:14.450Z,82.59
2022-10-18T07:26:46.428Z,82.31
2022-10-18T07:29:18.199Z,82.84
2022-10-18T07:31:49.887Z,83.06
2022-10-18T07:34:21.620Z,83.40
2022-10-18T07:36:53.369Z,83.37
2022-10-18T07:39:25.134Z,83.48
2022-10-18T07:41:59.837Z,83.77
2022-10-18T07:44:31.467Z,84.42
2022-10-18T07:47:03.324Z,84.08
2022-10-18T07:49:35.120Z,84.23
2022-10-18T07:52:06.872Z,83.62
2022-10-18T07:54:40.619Z,83.27
2022-10-18T07:57:12.659Z,83.61
2022-10-18T07:59:46.452Z,83.28
2022-10-18T08:02:18.161Z,83.87
2022-10-18T08:04:53.283Z,83.86
2022-10-18T08:07:25.350Z,83.46
2022-10-18T08:09:57.015Z,83.23
2022-10-18T08:12:29.174Z,82.59
2022-10-18T08:15:01.007Z,82.17
2022-10-18T08:17:32.966Z,82.58
2022-10-18T08:20:12.285Z,82.03
2022-10-18T08:23:00.320Z,81.79
2022-10-18T08:25:33.096Z,81.17
2022-10-18T08:28:05.117Z,81.54
2022-10-18T08:30:36.911Z,80.93
2022-10-18T08:33:08.964Z,81.10
2022-10-18T08:35:41.042Z,80.73
2022-10-18T08:38:16.598Z,80.28
2022-10-18T08:40:51.554Z,80.63
2022-10-18T08:43:50.141Z,80.38
2022-10-18T08:46:21.891Z,79.45
2022-10-18T08:48:56.606Z,78.97
2022-10-18T08:51:45.452Z,79.08
2022-10-18T08:54:30.613Z,79.28
2022-10-18T08:57:07.294Z,78.87
2022-10-18T08:59:40.737Z,78.68
2022-10-18T09:02:37.584Z,78.58
2022-10-18T09:05:33.721Z,78.03
2022-10-18T09:08:24.095Z,77.50
2022-10-18T09:11:25.904Z,77.14
2022-10-18T09:14:29.344Z,76.33
2022-10-18T09:17:26.759Z,75.65
2022-10-18T09:20:07.468Z,74.76
2022-10-18T09:23:05.340Z,73.58
2022-10-18T09:25:53.513Z,72.89
2022-10-18T09:28:31.140Z,71.88
2022-10-18T09:31:12.225Z,69.90
2022-10-18T09:33:49.124Z,68.39
2022-10-18T09:36:23.556Z,68.52
2022-10-18T09:39:01.770Z,68.25
2022-10-18T09:41:57.941Z,64.60
2022-10-18T09:44:36.091Z,64.66
2022-10-18T09:47:18.764Z,63.26
2022-10-18T09:50:02.762Z,62.84
2022-10-18T09:52:41.901Z,61.83
2022-10-18T09:55:20.313Z,60.40
2022-10-18T09:58:00.900Z,60.16
2022-10-18T10:00:47.022Z,59.93
2022-10-18T10:03:18.800Z,60.91
2022-10-18T10:06:17.641Z,61.12
2022-10-18T10:09:14.902Z,60.80
2022-10-18T10:11:51.549Z,60.98
2022-10-18T10:14:27.286Z,61.29
2022-10-18T10:17:03.343Z,61.30
2022-10-18T10:19:57.152Z,61.78
2022-10-18T10:22:38.553Z,62.58
2022-10-18T10:25:23.022Z,62.90
2022-10-18T10:27:55.216Z,63.36
2022-10-18T10:30:30.408Z,63.89
2022-10-18T10:33:03.105Z,63.94
2022-10-18T10:35:52.998Z,64.20
2022-10-18T10:38:33.512Z,65.03
2022-10-18T10:41:19.838Z,65.65
2022-10-18T10:43:51.948Z,66.22
2022-10-18T10:46:23.698Z,65.88
2022-10-18T10:49:27.931Z,66.39
2022-10-18T10:52:08.475Z,66.56
2022-10-18T10:54:50.387Z,66.46
2022-10-18T10:57:27.403Z,66.16
2022-10-18T11:00:02.568Z,66.72
2022-10-18T11:02:36.791Z,66.21
2022-10-18T11:05:29.922Z,65.78
2022-10-18T11:08:05.198Z,65.62
2022-10-18T11:10:55.018Z,65.14
2022-10-18T11:13:43.801Z,65.37
2022-10-18T11:16:40.379Z,66.08
2022-10-18T11:19:38.808Z,65.71
2022-10-18T11:22:17.181Z,65.52
2022-10-18T11:24:48.984Z,65.60
2022-10-18T11:27:35.063Z,65.44
2022-10-18T11:30:26.538Z,65.20
2022-10-18T11:33:18.101Z,64.81
2022-10-18T11:36:14.771Z,64.34
2022-10-18T11:39:05.390Z,63.85
2022-10-18T11:42:06.024Z,63.49
2022-10-18T11:45:11.042Z,63.20
2022-10-18T11:48:02.479Z,63.39
2022-10-18T11:50:52.694Z,62.74
2022-10-18T11:54:03.260Z,62.82
2022-10-18T11:56:47.119Z,62.71
2022-10-18T11:59:32.052Z,62.26
2022-10-18T12:02:25.466Z,62.32
2022-10-18T12:08:07.150Z,62.70
2022-10-18T12:10:46.003Z,63.29
2022-10-18T12:13:46.094Z,62.48
2022-10-18T12:16:39.017Z,62.60
2022-10-18T12:19:23.713Z,62.76
2022-10-18T12:22:08.603Z,62.66
2022-10-18T12:24:41.140Z,62.87
2022-10-18T12:27:15.887Z,62.67
2022-10-18T12:30:20.796Z,62.76
2022-10-18T12:33:23.218Z,62.12
2022-10-18T12:36:13.300Z,61.60
2022-10-18T12:38:49.124Z,61.13
2022-10-18T12:41:26.541Z,60.15
2022-10-18T12:44:06.220Z,59.60
2022-10-18T12:46:58.846Z,58.95
2022-10-18T12:49:34.032Z,58.77
2022-10-18T12:52:07.457Z,58.16
2022-10-18T12:54:42.892Z,58.46
2022-10-18T12:57:52.518Z,57.97
2022-10-18T13:00:30.342Z,58.13
2022-10-18T13:03:14.360Z,57.97
2022-10-18T13:05:54.438Z,58.34
2022-10-18T13:08:30.472Z,58.50
2022-10-18T13:11:02.614Z,58.09
2022-10-18T13:13:51.121Z,57.81
2022-10-18T13:16:22.978Z,57.75
2022-10-18T13:18:59.660Z,58.03
2022-10-18T13:21:55.420Z,57.96
2022-10-18T13:24:50.971Z,57.95
2022-10-18T13:27:55.349Z,57.21
2022-10-18T13:30:49.197Z,56.56
2022-10-18T13:33:41.761Z,55.96
2022-10-18T13:36:21.795Z,56.36
2022-10-18T13:38:58.332Z,56.53
2022-10-18T13:42:18.732Z,56.92
2022-10-18T13:44:52.823Z,57.60
2022-10-18T13:47:36.750Z,57.97
2022-10-18T13:50:22.309Z,58.49
2022-10-18T13:53:26.159Z,58.28
2022-10-18T13:56:29.362Z,58.30
2022-10-18T13:59:24.252Z,59.27
2022-10-18T14:02:50.489Z,60.05
2022-10-18T14:06:00.725Z,59.96
2022-10-18T14:08:42.171Z,61.06
2022-10-18T14:11:35.311Z,62.12
2022-10-18T14:14:23.506Z,62.77
2022-10-18T14:17:26.334Z,64.10
2022-10-18T14:20:13.592Z,64.74
2022-10-18T14:23:06.959Z,65.80
2022-10-18T14:25:39.339Z,67.33
2022-10-18T14:28:31.357Z,68.21
2022-10-18T14:31:18.338Z,69.67
2022-10-18T14:33:58.091Z,71.15
2022-10-18T14:36:41.441Z,71.99
2022-10-18T14:39:23.960Z,73.15
2022-10-18T14:41:57.451Z,73.04
2022-10-18T14:44:31.864Z,73.62
2022-10-18T14:47:16.295Z,73.94
2022-10-18T14:49:49.120Z,76.25
2022-10-18T14:52:29.478Z,76.93
2022-10-18T14:55:03.691Z,75.58
2022-10-18T14:57:37.706Z,76.20
2022-10-18T15:02:58.532Z,75.19
2022-10-18T15:05:30.914Z,75.74
2022-10-18T15:08:03.054Z,75.24
2022-10-18T15:10:35.283Z,76.43
2022-10-18T15:13:11.149Z,76.25
2022-10-18T15:15:44.668Z,76.61
2022-10-18T15:18:22.286Z,76.43
2022-10-18T15:21:25.206Z,76.82
2022-10-18T15:24:20.862Z,77.82
2022-10-18T15:26:54.951Z,77.53
2022-10-18T15:29:28.059Z,78.39
2022-10-18T15:32:14.770Z,78.00
2022-10-18T15:34:46.746Z,78.13
2022-10-18T15:37:45.727Z,78.10
2022-10-18T15:40:24.463Z,78.81
2022-10-18T15:42:59.094Z,78.24
2022-10-18T15:45:34.636Z,78.28
2022-10-18T15:48:06.265Z,78.36
2022-10-18T15:51:06.202Z,78.67
2022-10-18T15:53:49.751Z,79.44
2022-10-18T15:56:35.927Z,79.09
2022-10-18T15:59:30.918Z,79.81
2022-10-18T16:02:02.876Z,79.81
2022-10-18T16:04:37.717Z,79.36
2022-10-18T16:07:11.890Z,79.47
2022-10-18T16:09:43.556Z,79.53
2022-10-18T16:12:18.492Z,79.53
2022-10-18T16:14:50.101Z,79.42
2022-10-18T16:17:21.903Z,79.98
2022-10-18T16:19:53.561Z,79.73
2022-10-18T16:22:25.456Z,79.53
2022-10-18T16:24:57.174Z,79.13
2022-10-18T16:27:28.872Z,78.89
2022-10-18T16:30:00.628Z,79.50
2022-10-18T16:32:32.579Z,79.88
2022-10-18T16:35:06.378Z,80.23
2022-10-18T16:37:39.686Z,81.68
2022-10-18T16:40:24.027Z,79.55
2022-10-18T16:42:55.840Z,79.48
2022-10-18T16:45:27.494Z,79.66
2022-10-18T16:47:59.196Z,79.88
2022-10-18T16:50:34.634Z,81.03
2022-10-18T16:53:07.291Z,81.43
2022-10-18T16:55:40.534Z,81.60
2022-10-18T16:58:17.999Z,81.57
2022-10-18T17:00:51.162Z,82.45
2022-10-18T17:03:23.263Z,82.85
2022-10-18T17:05:56.294Z,83.07
2022-10-18T17:08:28.412Z,83.29
2022-10-18T17:11:02.135Z,83.18
2022-10-18T17:13:34.075Z,84.27
2022-10-18T17:16:06.694Z,83.96
2022-10-18T17:18:38.448Z,84.16
2022-10-18T17:21:10.142Z,83.86
2022-10-18T17:23:42.156Z,84.63
2022-10-18T17:26:28.411Z,84.32
2022-10-18T17:29:04.939Z,84.48
2022-10-18T17:31:36.923Z,84.45
2022-10-18T17:34:09.261Z,85.06
2022-10-18T17:36:41.019Z,85.28
2022-10-18T17:39:13.009Z,85.25
2022-10-18T17:41:45.310Z,85.47
2022-10-18T17:44:17.153Z,85.68
2022-10-18T17:46:48.901Z,85.58
2022-10-18T17:49:22.267Z,85.33
2022-10-18T17:51:54.078Z,85.40
2022-10-18T17:54:25.760Z,85.30
2022-10-18T17:56:57.469Z,85.58
2022-10-18T17:59:29.471Z,85.05
2022-10-18T18:02:01.224Z,84.93
2022-10-18T18:04:32.938Z,84.66
2022-10-18T18:07:04.723Z,84.47
2022-10-18T18:09:36.479Z,84.70
2022-10-18T18:12:08.098Z,85.18
2022-10-18T18:14:39.944Z,84.99
2022-10-18T18:17:12.543Z,84.55
2022-10-18T18:19:44.313Z,84.90
2022-10-18T18:22:16.083Z,85.22
2022-10-18T18:24:47.864Z,85.09
2022-10-18T18:27:19.482Z,85.33
2022-10-18T18:29:51.138Z,85.29
2022-10-18T18:32:22.882Z,85.01
2022-10-18T18:34:55.012Z,85.16
2022-10-18T18:37:26.767Z,85.65
2022-10-18T18:39:58.520Z,85.36
2022-10-18T18:42:30.306Z,85.43
2022-10-18T18:45:02.307Z,85.42
2022-10-18T18:47:35.577Z,85.53
2022-10-18T18:50:07.955Z,85.97
2022-10-18T18:52:39.621Z,85.65
2022-10-18T18:55:11.449Z,85.67
2022-10-18T18:57:45.861Z,85.94
2022-10-18T19:00:17.698Z,86.04
2022-10-18T19:02:49.406Z,86.21
2022-10-18T19:05:21.184Z,86.10
2022-10-18T19:07:52.911Z,86.10
2022-10-18T19:10:24.655Z,86.12
2022-10-18T19:12:56.597Z,86.33
2022-10-18T19:15:28.507Z,85.73
2022-10-18T19:18:00.226Z,85.97
2022-10-18T19:20:32.005Z,85.80
2022-10-18T19:23:03.732Z,85.67
2022-10-18T19:25:35.523Z,85.51
2022-10-18T19:28:07.324Z,84.97
2022-10-18T19:30:39.078Z,84.70
2022-10-18T19:33:12.097Z,84.78
2022-10-18T19:35:43.753Z,84.66
2022-10-18T19:38:15.619Z,84.57
2022-10-18T19:40:51.562Z,85.20
2022-10-18T19:43:25.262Z,85.73
2022-10-18T19:46:01.370Z,86.00
2022-10-18T19:48:33.033Z,86.04
2022-10-18T19:51:10.394Z,85.68
2022-10-18T19:53:43.249Z,85.81
2022-10-18T19:56:21.369Z,85.53
2022-10-18T19:58:53.776Z,85.44
2022-10-18T20:01:27.332Z,85.36
2022-10-18T20:03:59.537Z,85.05
2022-10-18T20:06:32.368Z,85.46
2022-10-18T20:09:05.622Z,85.53
2022-10-18T20:11:37.763Z,85.45
2022-10-18T20:14:10.830Z,85.15
2022-10-18T20:16:42.583Z,85.34
2022-10-18T20:19:16.976Z,84.86
2022-10-18T20:21:48.790Z,84.84
2022-10-18T20:24:20.441Z,85.07
2022-10-18T20:29:25.545Z,85.13
2022-10-18T20:31:57.264Z,85.11
2022-10-18T20:34:31.913Z,85.32
2022-10-18T20:37:03.437Z,85.47
2022-10-18T20:39:35.250Z,85.45
2022-10-18T20:42:06.955Z,85.41
2022-10-18T20:44:41.068Z,85.30
2022-10-18T20:47:12.843Z,85.77
2022-10-18T20:49:44.555Z,85.34
2022-10-18T20:52:16.355Z,85.52
2022-10-18T20:54:48.214Z,85.73
2022-10-18T20:57:20.071Z,85.73
2022-10-18T20:59:52.774Z,85.95
2022-10-18T21:02:24.534Z,85.48
2022-10-18T21:04:56.345Z,85.48
2022-10-18T21:07:29.401Z,85.27
2022-10-18T21:10:01.106Z,85.63
2022-10-18T21:12:35.019Z,85.62
2022-10-18T21:15:07.596Z,85.68
2022-10-18T21:17:39.368Z,85.77
2022-10-18T21:20:11.742Z,85.81
2022-10-18T21:22:43.500Z,86.20
2022-10-18T21:25:15.269Z,85.66
2022-10-18T21:27:47.740Z,85.92
2022-10-18T21:30:19.414Z,85.89
2022-10-18T21:32:52.590Z,85.77
2022-10-18T21:35:24.245Z,85.71
2022-10-18T21:37:58.074Z,85.98
2022-10-18T21:40:29.871Z,85.54
2022-10-18T21:43:01.688Z,85.37
2022-10-18T21:45:36.383Z,85.28
2022-10-18T21:48:08.040Z,85.05
2022-10-18T21:50:39.654Z,85.40
2022-10-18T21:53:11.370Z,85.04
2022-10-18T21:55:43.113Z,85.17
2022-10-18T21:58:14.917Z,85.50
2022-10-18T22:00:49.784Z,85.19
2022-10-18T22:03:23.371Z,85.05
2022-10-18T22:06:04.896Z,85.43
2022-10-18T22:08:36.589Z,85.65
2022-10-18T22:11:09.176Z,86.04
2022-10-18T22:13:41.666Z,86.03
2022-10-18T22:16:15.880Z,86.29
2022-10-18T22:18:49.061Z,86.56
2022-10-18T22:21:20.872Z,86.90
2022-10-18T22:23:54.332Z,86.87
2022-10-18T22:26:32.278Z,86.91
2022-10-18T22:29:15.686Z,87.14
2022-10-18T22:31:49.964Z,87.43
2022-10-18T22:34:24.373Z,87.72
2022-10-18T22:36:56.389Z,87.19
2022-10-18T22:39:28.067Z,87.35
2022-10-18T22:42:01.246Z,87.24
2022-10-18T22:44:36.459Z,87.27
2022-10-18T22:47:08.141Z,87.65
2022-10-18T22:49:39.883Z,87.37
2022-10-18T22:52:11.550Z,87.18
2022-10-18T22:54:43.246Z,87.02
2022-10-18T22:57:14.926Z,87.42
2022-10-18T22:59:46.651Z,87.34
2022-10-18T23:02:18.306Z,86.91
2022-10-18T23:04:50.020Z,87.39
2022-10-18T23:07:21.804Z,88.05
2022-10-18T23:09:53.475Z,88.48
2022-10-18T23:12:25.240Z,88.64
2022-10-18T23:14:57.121Z,88.14
2022-10-18T23:17:28.833Z,88.12
2022-10-18T23:20:00.848Z,88.04
2022-10-18T23:22:33.059Z,87.47
2022-10-18T23:25:08.251Z,87.72
2022-10-18T23:27:39.984Z,87.72
2022-10-18T23:30:12.296Z,87.69
2022-10-18T23:32:44.086Z,87.88
2022-10-18T23:35:15.886Z,87.82
2022-10-18T23:37:47.630Z,87.51
2022-10-18T23:40:19.303Z,88.03
2022-10-18T23:42:51.025Z,88.72
2022-10-18T23:45:22.829Z,88.23
2022-10-18T23:47:54.442Z,88.23
2022-10-18T23:50:26.094Z,87.98
2022-10-18T23:52:57.887Z,87.74
2022-10-18T23:55:29.679Z,87.58
2022-10-18T23:58:02.078Z,87.52
